createdAt,value
2019-02-02T00:01:07.970Z,3.30
2019-02-02T00:03:36.397Z,3.30
2019-02-02T00:06:05.382Z,3.30
2019-02-02T00:08:33.840Z,3.30
2019-02-02T00:11:02.258Z,3.30
2019-02-02T00:13:30.690Z,3.20
2019-02-02T00:15:59.253Z,3.20
2019-02-02T00:18:27.755Z,3.20
2019-02-02T00:20:56.190Z,3.20
2019-02-02T00:23:24.668Z,3.20
2019-02-02T00:25:53.101Z,3.20
2019-02-02T00:28:21.523Z,3.20
2019-02-02T00:30:49.981Z,3.20
2019-02-02T00:33:18.399Z,3.20
2019-02-02T00:35:46.884Z,3.30
2019-02-02T00:38:15.311Z,3.30
2019-02-02T00:40:43.799Z,3.30
2019-02-02T00:43:12.245Z,3.30
2019-02-02T00:45:40.812Z,3.40
2019-02-02T00:48:28.676Z,3.40
2019-02-02T00:50:57.107Z,3.40
2019-02-02T00:53:25.552Z,3.50
2019-02-02T00:55:54.000Z,3.50
2019-02-02T00:58:22.430Z,3.50
2019-02-02T01:00:50.874Z,3.50
2019-02-02T01:03:31.901Z,3.60
2019-02-02T01:06:00.400Z,3.50
2019-02-02T01:08:28.852Z,3.50
2019-02-02T01:10:57.304Z,3.50
2019-02-02T01:13:25.770Z,3.50
2019-02-02T01:15:54.196Z,3.40
2019-02-02T01:18:23.028Z,3.50
2019-02-02T01:20:51.484Z,3.50
2019-02-02T01:23:20.008Z,3.50
2019-02-02T01:25:48.798Z,3.50
2019-02-02T01:28:17.414Z,3.50
2019-02-02T01:30:45.938Z,3.40
2019-02-02T01:33:14.428Z,3.50
2019-02-02T01:36:02.238Z,3.50
2019-02-02T01:38:30.665Z,3.50
2019-02-02T01:40:59.255Z,3.50
2019-02-02T01:43:27.671Z,3.50
2019-02-02T01:45:56.135Z,3.50
2019-02-02T01:48:24.620Z,3.50
2019-02-02T01:50:53.114Z,3.50
2019-02-02T01:53:21.567Z,3.50
2019-02-02T01:55:49.991Z,3.50
2019-02-02T01:58:18.444Z,3.50
2019-02-02T02:00:46.875Z,3.50
2019-02-02T02:03:15.309Z,3.50
2019-02-02T02:05:43.907Z,3.50
2019-02-02T02:08:24.563Z,3.50
2019-02-02T02:10:53.009Z,3.50
2019-02-02T02:13:21.433Z,3.50
2019-02-02T02:15:49.888Z,3.60
2019-02-02T02:18:18.348Z,3.60
2019-02-02T02:20:46.772Z,3.60
2019-02-02T02:23:15.192Z,3.60
2019-02-02T02:25:43.747Z,3.60
2019-02-02T02:28:31.580Z,3.70
2019-02-02T02:31:00.024Z,3.70
2019-02-02T02:33:28.444Z,3.70
2019-02-02T02:35:57.003Z,3.70
2019-02-02T02:38:44.749Z,3.70
2019-02-02T02:41:13.194Z,3.70
2019-02-02T02:43:41.616Z,3.70
2019-02-02T02:46:10.062Z,3.70
2019-02-02T02:48:38.516Z,3.70
2019-02-02T02:51:06.946Z,3.70
2019-02-02T02:53:35.401Z,3.70
2019-02-02T02:56:04.383Z,3.60
2019-02-02T02:58:41.165Z,3.60
2019-02-02T03:01:02.984Z,3.60
2019-02-02T03:03:31.459Z,3.50
2019-02-02T03:05:59.873Z,3.50
2019-02-02T03:08:28.322Z,3.50
2019-02-02T03:10:56.767Z,3.50
2019-02-02T03:13:25.193Z,3.50
2019-02-02T03:15:53.762Z,3.50
2019-02-02T03:18:22.213Z,3.50
2019-02-02T03:20:50.668Z,3.50
2019-02-02T03:23:19.091Z,3.60
2019-02-02T03:25:47.537Z,3.60
2019-02-02T03:28:16.083Z,3.60
2019-02-02T03:30:44.524Z,3.60
2019-02-02T03:33:12.976Z,3.60
2019-02-02T03:35:41.401Z,3.50
2019-02-02T03:38:10.038Z,3.50
2019-02-02T03:40:38.452Z,3.50
2019-02-02T03:43:06.900Z,3.50
2019-02-02T03:45:35.341Z,3.50
2019-02-02T03:48:04.365Z,3.50
2019-02-02T03:50:32.787Z,3.50
2019-02-02T03:53:01.222Z,3.50
2019-02-02T03:55:49.059Z,3.60
2019-02-02T03:58:17.779Z,3.60
2019-02-02T04:00:46.215Z,3.60
2019-02-02T04:03:15.027Z,3.60
2019-02-02T04:05:50.748Z,3.60
2019-02-02T04:08:19.301Z,3.70
2019-02-02T04:10:47.793Z,3.70
2019-02-02T04:13:16.224Z,3.70
2019-02-02T04:15:44.739Z,3.70
2019-02-02T04:18:13.217Z,3.70
2019-02-02T04:20:41.836Z,3.70
2019-02-02T04:23:29.675Z,3.70
2019-02-02T04:25:58.901Z,3.80
2019-02-02T04:28:27.328Z,3.80
2019-02-02T04:30:55.851Z,3.70
2019-02-02T04:33:24.356Z,3.70
2019-02-02T04:35:52.796Z,3.70
2019-02-02T04:38:21.251Z,3.70
2019-02-02T04:41:09.047Z,3.70
2019-02-02T04:43:37.502Z,3.70
2019-02-02T04:46:06.020Z,3.70
2019-02-02T04:48:34.450Z,3.70
2019-02-02T04:51:02.900Z,3.70
2019-02-02T04:53:31.350Z,3.70
2019-02-02T04:55:59.794Z,3.70
2019-02-02T04:58:28.586Z,3.70
2019-02-02T05:00:57.600Z,3.70
2019-02-02T05:03:26.072Z,3.80
2019-02-02T05:05:54.519Z,3.80
2019-02-02T05:08:22.975Z,3.80
2019-02-02T05:10:51.427Z,3.80
2019-02-02T05:13:19.852Z,3.80
2019-02-02T05:15:48.303Z,3.70
2019-02-02T05:18:16.760Z,3.70
2019-02-02T05:20:45.194Z,3.70
2019-02-02T05:23:13.638Z,3.70
2019-02-02T05:26:01.443Z,3.70
2019-02-02T05:28:29.908Z,3.70
2019-02-02T05:30:58.327Z,3.70
2019-02-02T05:33:26.856Z,3.80
2019-02-02T05:35:55.290Z,3.80
2019-02-02T05:38:23.800Z,3.80
2019-02-02T05:40:52.257Z,3.80
2019-02-02T05:43:20.667Z,3.80
2019-02-02T05:45:49.115Z,3.80
2019-02-02T05:48:17.549Z,3.80
2019-02-02T05:50:46.000Z,3.80
2019-02-02T05:53:14.442Z,3.80
2019-02-02T05:58:39.078Z,3.70
2019-02-02T06:01:09.142Z,3.70
2019-02-02T06:03:37.563Z,3.70
2019-02-02T06:06:06.021Z,3.70
2019-02-02T06:08:34.517Z,3.70
2019-02-02T06:11:02.995Z,3.70
2019-02-02T06:13:31.419Z,3.70
2019-02-02T06:15:59.871Z,3.70
2019-02-02T06:18:28.291Z,3.70
2019-02-02T06:20:56.824Z,3.70
2019-02-02T06:23:25.248Z,3.70
2019-02-02T06:25:53.703Z,3.70
2019-02-02T06:28:22.139Z,3.70
2019-02-02T06:30:50.587Z,3.60
2019-02-02T06:33:19.016Z,3.60
2019-02-02T06:36:06.799Z,3.60
2019-02-02T06:38:35.253Z,3.60
2019-02-02T06:41:03.764Z,3.60
2019-02-02T06:43:32.263Z,3.60
2019-02-02T06:46:00.728Z,3.50
2019-02-02T06:48:29.180Z,3.50
2019-02-02T06:50:57.733Z,3.60
2019-02-02T06:53:26.227Z,3.60
2019-02-02T06:55:54.648Z,3.60
2019-02-02T06:58:23.100Z,3.50
2019-02-02T07:00:51.555Z,3.50
2019-02-02T07:03:19.971Z,3.50
2019-02-02T07:06:00.991Z,3.50
2019-02-02T07:08:29.467Z,3.50
2019-02-02T07:10:57.894Z,3.50
2019-02-02T07:13:45.683Z,3.50
2019-02-02T07:16:33.452Z,3.50
2019-02-02T07:19:01.903Z,3.50
2019-02-02T07:21:30.431Z,3.50
2019-02-02T07:23:58.889Z,3.50
2019-02-02T07:26:27.401Z,3.50
2019-02-02T07:28:55.851Z,3.50
2019-02-02T07:31:24.305Z,3.60
2019-02-02T07:33:52.775Z,3.60
2019-02-02T07:36:21.219Z,3.60
2019-02-02T07:39:09.048Z,3.60
2019-02-02T07:41:37.488Z,3.60
2019-02-02T07:44:05.919Z,3.60
2019-02-02T07:46:53.877Z,3.60
2019-02-02T07:49:22.328Z,3.70
2019-02-02T07:54:47.500Z,3.70
2019-02-02T07:57:15.957Z,3.70
2019-02-02T07:59:44.374Z,3.80
2019-02-02T08:02:12.837Z,3.80
2019-02-02T08:04:41.265Z,3.80
2019-02-02T08:07:09.782Z,3.80
2019-02-02T08:12:47.331Z,3.80
2019-02-02T08:15:21.207Z,3.80
2019-02-02T08:17:49.679Z,3.80
2019-02-02T08:20:18.180Z,3.80
2019-02-02T08:22:46.922Z,3.80
2019-02-02T08:25:16.330Z,3.80
2019-02-02T08:27:44.909Z,3.80
2019-02-02T08:30:18.528Z,3.90
2019-02-02T08:32:46.982Z,3.90
2019-02-02T08:35:15.820Z,4.00
2019-02-02T08:37:44.416Z,4.00
2019-02-02T08:40:15.452Z,4.00
2019-02-02T08:42:43.969Z,4.00
2019-02-02T08:45:14.464Z,3.90
2019-02-02T08:47:42.960Z,3.90
2019-02-02T08:50:20.309Z,3.90
2019-02-02T08:52:48.914Z,4.00
2019-02-02T08:55:17.525Z,4.00
2019-02-02T08:57:46.137Z,4.00
2019-02-02T09:00:21.293Z,4.00
2019-02-02T09:02:49.811Z,4.00
2019-02-02T09:05:23.176Z,4.00
2019-02-02T09:07:51.636Z,4.00
2019-02-02T09:10:22.814Z,4.10
2019-02-02T09:12:51.464Z,4.10
2019-02-02T09:15:20.646Z,4.10
2019-02-02T09:17:49.187Z,4.10
2019-02-02T09:20:17.434Z,4.20
2019-02-02T09:22:46.619Z,4.10
2019-02-02T09:25:17.036Z,4.10
2019-02-02T09:27:45.503Z,4.10
2019-02-02T09:30:22.585Z,4.10
2019-02-02T09:32:51.204Z,4.10
2019-02-02T09:35:19.687Z,4.10
2019-02-02T09:37:48.212Z,4.10
2019-02-02T09:40:18.980Z,4.10
2019-02-02T09:42:47.508Z,4.10
2019-02-02T09:45:21.051Z,4.20
2019-02-02T09:47:50.111Z,4.10
2019-02-02T09:50:21.122Z,4.20
2019-02-02T09:52:49.616Z,4.20
2019-02-02T09:55:19.989Z,4.20
2019-02-02T09:58:08.790Z,4.20
2019-02-02T10:00:37.556Z,4.20
2019-02-02T10:03:06.451Z,4.20
2019-02-02T10:05:34.914Z,4.20
2019-02-02T10:08:03.353Z,4.20
2019-02-02T10:10:33.728Z,4.20
2019-02-02T10:13:02.803Z,4.20
2019-02-02T10:15:31.329Z,4.20
2019-02-02T10:17:59.763Z,4.20
2019-02-02T10:20:30.163Z,4.20
2019-02-02T10:23:00.012Z,4.20
2019-02-02T10:25:31.911Z,4.20
2019-02-02T10:28:00.698Z,4.20
2019-02-02T10:30:36.997Z,4.20
2019-02-02T10:33:07.295Z,4.10
2019-02-02T10:35:36.015Z,4.10
2019-02-02T10:38:05.119Z,4.10
2019-02-02T10:40:33.748Z,4.10
2019-02-02T10:43:02.353Z,4.10
2019-02-02T10:45:30.922Z,4.10
2019-02-02T10:47:59.498Z,4.10
2019-02-02T10:50:28.147Z,4.10
2019-02-02T10:52:56.699Z,4.10
2019-02-02T10:55:25.623Z,4.10
2019-02-02T10:57:55.046Z,4.10
2019-02-02T11:00:34.955Z,4.10
2019-02-02T11:03:03.643Z,4.10
2019-02-02T11:05:32.538Z,4.10
2019-02-02T11:08:01.526Z,4.10
2019-02-02T11:10:32.638Z,4.20
2019-02-02T11:13:01.542Z,4.20
2019-02-02T11:15:30.265Z,4.30
2019-02-02T11:17:59.398Z,4.40
2019-02-02T11:20:33.107Z,4.50
2019-02-02T11:23:02.002Z,4.60
2019-02-02T11:25:30.758Z,4.60
2019-02-02T11:27:59.762Z,4.70
2019-02-02T11:30:28.968Z,4.70
2019-02-02T11:32:57.892Z,4.70
2019-02-02T11:35:26.443Z,4.70
2019-02-02T11:37:55.072Z,4.70
2019-02-02T11:40:28.495Z,4.70
2019-02-02T11:42:57.316Z,4.70
2019-02-02T11:45:26.562Z,4.70
2019-02-02T11:47:55.250Z,4.70
2019-02-02T11:50:24.143Z,4.70
2019-02-02T11:52:52.756Z,4.70
2019-02-02T11:55:26.098Z,4.60
2019-02-02T11:57:55.058Z,4.60
2019-02-02T12:00:29.662Z,4.60
2019-02-02T12:02:58.230Z,4.60
2019-02-02T12:05:46.012Z,4.70
2019-02-02T12:08:14.494Z,4.70
2019-02-02T12:10:42.958Z,4.80
2019-02-02T12:13:11.569Z,4.80
2019-02-02T12:15:40.162Z,4.80
2019-02-02T12:18:11.777Z,4.80
2019-02-02T12:20:40.215Z,4.80
2019-02-02T12:23:09.086Z,4.80
2019-02-02T12:25:37.701Z,4.90
2019-02-02T12:28:09.110Z,4.80
2019-02-02T12:30:36.585Z,4.70
2019-02-02T12:33:05.452Z,4.60
2019-02-02T12:35:34.051Z,4.60
2019-02-02T12:38:02.748Z,4.60
2019-02-02T12:40:31.654Z,4.50
2019-02-02T12:43:00.146Z,4.50
2019-02-02T12:45:34.263Z,4.50
2019-02-02T12:48:02.776Z,4.40
2019-02-02T12:50:31.583Z,4.40
2019-02-02T12:53:00.068Z,4.30
2019-02-02T12:55:28.690Z,4.30
2019-02-02T12:57:57.193Z,4.30
2019-02-02T13:00:25.684Z,4.30
2019-02-02T13:03:13.466Z,4.30
2019-02-02T13:05:41.952Z,4.30
2019-02-02T13:08:10.458Z,4.30
2019-02-02T13:10:38.900Z,4.30
2019-02-02T13:13:07.374Z,4.30
2019-02-02T13:15:35.774Z,4.30
2019-02-02T13:18:04.544Z,4.30
2019-02-02T13:20:33.003Z,4.30
2019-02-02T13:23:01.532Z,4.30
2019-02-02T13:25:30.039Z,4.30
2019-02-02T13:27:58.539Z,4.30
2019-02-02T13:30:35.568Z,4.30
2019-02-02T13:33:04.775Z,4.30
2019-02-02T13:35:35.672Z,4.30
2019-02-02T13:38:05.348Z,4.30
2019-02-02T13:40:33.832Z,4.40
2019-02-02T13:43:02.296Z,4.40
2019-02-02T13:45:30.824Z,4.40
2019-02-02T13:47:59.275Z,4.40
2019-02-02T13:50:27.803Z,4.40
2019-02-02T13:52:56.216Z,4.50
2019-02-02T13:55:24.818Z,4.50
2019-02-02T13:57:53.260Z,4.60
2019-02-02T14:00:29.790Z,4.60
2019-02-02T14:03:02.858Z,4.50
2019-02-02T14:05:28.687Z,4.50
2019-02-02T14:08:00.034Z,4.50
2019-02-02T14:10:32.588Z,4.60
2019-02-02T14:13:01.101Z,4.60
2019-02-02T14:15:29.543Z,4.50
2019-02-02T14:17:58.009Z,4.50
2019-02-02T14:20:26.568Z,4.50
2019-02-02T14:22:55.017Z,4.50
2019-02-02T14:25:23.506Z,4.50
2019-02-02T14:27:52.426Z,4.50
2019-02-02T14:30:22.732Z,4.50
2019-02-02T14:32:51.225Z,4.50
2019-02-02T14:35:21.705Z,4.40
2019-02-02T14:37:50.338Z,4.30
2019-02-02T14:40:20.460Z,4.30
2019-02-02T14:42:48.935Z,4.30
2019-02-02T14:45:23.371Z,4.30
2019-02-02T14:47:51.891Z,4.30
2019-02-02T14:50:21.667Z,4.30
2019-02-02T14:52:51.139Z,4.30
2019-02-02T14:55:25.413Z,4.30
2019-02-02T14:57:53.978Z,4.30
2019-02-02T15:00:27.107Z,4.20
2019-02-02T15:03:25.484Z,4.20
2019-02-02T15:05:45.174Z,4.20
2019-02-02T15:08:13.600Z,4.20
2019-02-02T15:10:42.159Z,4.20
2019-02-02T15:13:10.604Z,4.20
2019-02-02T15:15:39.050Z,4.20
2019-02-02T15:18:07.493Z,4.20
2019-02-02T15:20:36.755Z,4.10
2019-02-02T15:23:06.039Z,4.10
2019-02-02T15:25:34.655Z,4.10
2019-02-02T15:28:03.206Z,4.10
2019-02-02T15:30:34.176Z,4.00
2019-02-02T15:33:02.744Z,4.00
2019-02-02T15:35:31.269Z,4.00
2019-02-02T15:37:59.694Z,4.00
2019-02-02T15:40:31.282Z,4.10
2019-02-02T15:42:58.329Z,4.10
2019-02-02T15:45:32.975Z,4.10
2019-02-02T15:48:01.817Z,4.10
2019-02-02T15:50:30.280Z,4.20
2019-02-02T15:52:58.699Z,4.20
2019-02-02T15:55:27.243Z,4.20
2019-02-02T15:57:55.667Z,4.10
2019-02-02T16:00:32.570Z,4.10
2019-02-02T16:03:01.083Z,4.10
2019-02-02T16:05:30.174Z,4.00
2019-02-02T16:08:00.885Z,4.00
2019-02-02T16:10:32.026Z,4.00
2019-02-02T16:13:01.097Z,4.00
2019-02-02T16:15:29.732Z,3.90
2019-02-02T16:17:58.181Z,3.90
2019-02-02T16:20:29.492Z,3.90
2019-02-02T16:22:57.923Z,3.90
2019-02-02T16:25:26.367Z,3.90
2019-02-02T16:27:54.809Z,3.80
2019-02-02T16:30:28.473Z,3.80
2019-02-02T16:32:57.327Z,3.80
2019-02-02T16:35:45.096Z,3.80
2019-02-02T16:38:13.537Z,3.80
2019-02-02T16:40:42.004Z,3.80
2019-02-02T16:43:10.437Z,3.70
2019-02-02T16:45:58.231Z,3.70
2019-02-02T16:48:26.659Z,3.70
2019-02-02T16:50:56.891Z,3.70
2019-02-02T16:53:45.175Z,3.70
2019-02-02T16:56:13.623Z,3.70
2019-02-02T16:58:42.047Z,3.70
2019-02-02T17:01:10.491Z,3.70
2019-02-02T17:03:38.956Z,3.80
2019-02-02T17:06:07.400Z,3.80
2019-02-02T17:08:35.820Z,3.80
2019-02-02T17:11:04.809Z,3.80
2019-02-02T17:13:33.230Z,3.80
2019-02-02T17:16:01.662Z,3.80
2019-02-02T17:18:30.084Z,3.80
2019-02-02T17:20:58.539Z,3.80
2019-02-02T17:23:26.958Z,3.80
2019-02-02T17:25:55.421Z,3.80
2019-02-02T17:28:23.915Z,3.80
2019-02-02T17:30:52.363Z,3.80
2019-02-02T17:33:20.790Z,3.80
2019-02-02T17:35:49.270Z,3.80
2019-02-02T17:38:17.701Z,3.90
2019-02-02T17:40:46.123Z,3.80
2019-02-02T17:43:14.577Z,3.80
2019-02-02T17:45:43.007Z,3.80
2019-02-02T17:48:13.217Z,3.80
2019-02-02T17:50:41.686Z,3.80
2019-02-02T17:53:10.192Z,3.80
2019-02-02T17:55:38.647Z,3.70
2019-02-02T17:58:07.106Z,3.70
2019-02-02T18:03:30.235Z,3.80
2019-02-02T18:05:58.858Z,3.80
2019-02-02T18:08:27.358Z,3.80
2019-02-02T18:10:55.847Z,3.70
2019-02-02T18:13:24.293Z,3.70
2019-02-02T18:15:52.735Z,3.80
2019-02-02T18:18:21.163Z,3.80
2019-02-02T18:20:49.687Z,3.80
2019-02-02T18:23:18.715Z,3.80
2019-02-02T18:25:47.239Z,3.70
2019-02-02T18:28:28.338Z,3.80
2019-02-02T18:30:56.933Z,3.80
2019-02-02T18:33:25.355Z,3.80
2019-02-02T18:35:53.976Z,3.70
2019-02-02T18:38:22.404Z,3.70
2019-02-02T18:40:50.855Z,3.70
2019-02-02T18:43:19.287Z,3.70
2019-02-02T18:45:47.732Z,3.60
2019-02-02T18:48:16.196Z,3.60
2019-02-02T18:50:44.620Z,3.70
2019-02-02T18:53:13.172Z,3.70
2019-02-02T18:55:48.028Z,3.70
2019-02-02T18:58:16.551Z,3.80
2019-02-02T19:00:44.972Z,3.80
2019-02-02T19:03:13.413Z,3.80
2019-02-02T19:05:41.922Z,3.80
2019-02-02T19:08:10.386Z,3.80
2019-02-02T19:10:41.383Z,3.70
2019-02-02T19:13:09.946Z,3.70
2019-02-02T19:15:38.541Z,3.70
2019-02-02T19:18:07.709Z,3.70
2019-02-02T19:20:36.295Z,3.70
2019-02-02T19:23:05.407Z,3.70
2019-02-02T19:25:33.832Z,3.70
2019-02-02T19:28:02.267Z,3.80
2019-02-02T19:30:32.873Z,3.80
2019-02-02T19:33:01.388Z,3.80
2019-02-02T19:35:29.916Z,3.70
2019-02-02T19:37:58.357Z,3.70
2019-02-02T19:40:26.855Z,3.70
2019-02-02T19:42:55.701Z,3.70
2019-02-02T19:45:26.422Z,3.70
2019-02-02T19:47:54.935Z,3.70
2019-02-02T19:50:28.735Z,3.70
2019-02-02T19:52:57.790Z,3.70
2019-02-02T19:55:26.499Z,3.70
2019-02-02T19:57:54.980Z,3.80
2019-02-02T20:00:34.160Z,3.80
2019-02-02T20:03:03.256Z,3.80
2019-02-02T20:05:51.149Z,3.80
2019-02-02T20:08:19.767Z,3.80
2019-02-02T20:10:48.394Z,3.70
2019-02-02T20:13:19.483Z,3.70
2019-02-02T20:15:47.208Z,3.70
2019-02-02T20:18:15.827Z,3.70
2019-02-02T20:20:44.469Z,3.70
2019-02-02T20:23:12.999Z,3.70
2019-02-02T20:25:41.590Z,3.70
2019-02-02T20:28:10.263Z,3.70
2019-02-02T20:30:39.086Z,3.70
2019-02-02T20:33:07.755Z,3.70
2019-02-02T20:35:42.135Z,3.70
2019-02-02T20:38:07.083Z,3.60
2019-02-02T20:40:35.628Z,3.60
2019-02-02T20:43:23.518Z,3.60
2019-02-02T20:45:52.119Z,3.60
2019-02-02T20:48:20.822Z,3.60
2019-02-02T20:50:49.323Z,3.60
2019-02-02T20:53:18.461Z,3.50
2019-02-02T20:55:47.170Z,3.40
2019-02-02T20:58:15.844Z,3.30
2019-02-02T21:01:04.269Z,3.30
2019-02-02T21:03:33.461Z,3.20
2019-02-02T21:06:01.984Z,3.10
2019-02-02T21:08:49.868Z,3.00
2019-02-02T21:11:18.362Z,3.00
2019-02-02T21:13:47.195Z,3.00
2019-02-02T21:16:15.745Z,2.90
2019-02-02T21:18:44.310Z,2.90
2019-02-02T21:21:12.923Z,2.90
2019-02-02T21:23:41.614Z,2.90
2019-02-02T21:26:11.102Z,2.90
2019-02-02T21:28:50.085Z,3.00
2019-02-02T21:31:10.341Z,3.10
2019-02-02T21:33:38.903Z,3.10
2019-02-02T21:36:07.784Z,3.20
2019-02-02T21:38:37.970Z,3.20
2019-02-02T21:41:07.210Z,3.20
2019-02-02T21:43:35.774Z,3.20
2019-02-02T21:46:04.492Z,3.30
2019-02-02T21:48:36.014Z,3.30
2019-02-02T21:51:03.201Z,3.30
2019-02-02T21:53:32.172Z,3.40
2019-02-02T21:56:01.658Z,3.40
2019-02-02T21:58:30.280Z,3.40
2019-02-02T22:00:58.899Z,3.40
2019-02-02T22:03:27.500Z,3.40
2019-02-02T22:05:56.115Z,3.50
2019-02-02T22:08:24.950Z,3.50
2019-02-02T22:10:53.466Z,3.50
2019-02-02T22:13:21.996Z,3.50
2019-02-02T22:15:50.464Z,3.50
2019-02-02T22:18:21.708Z,3.50
2019-02-02T22:20:49.148Z,3.40
2019-02-02T22:23:17.609Z,3.40
2019-02-02T22:25:46.140Z,3.40
2019-02-02T22:28:14.574Z,3.40
2019-02-02T22:30:43.022Z,3.50
2019-02-02T22:33:11.539Z,3.50
2019-02-02T22:35:40.275Z,3.50
2019-02-02T22:38:08.707Z,3.50
2019-02-02T22:40:37.376Z,3.50
2019-02-02T22:43:06.108Z,3.50
2019-02-02T22:45:34.687Z,3.50
2019-02-02T22:48:03.227Z,3.50
2019-02-02T22:50:31.947Z,3.50
2019-02-02T22:53:00.387Z,3.50
2019-02-02T22:55:28.855Z,3.40
2019-02-02T22:57:57.291Z,3.40
2019-02-02T23:00:48.385Z,3.40
2019-02-02T23:03:19.990Z,3.40
2019-02-02T23:06:03.607Z,3.40
2019-02-02T23:08:51.583Z,3.40
2019-02-02T23:11:40.916Z,3.40
2019-02-02T23:14:18.140Z,3.40
2019-02-02T23:16:46.587Z,3.40
2019-02-02T23:19:15.115Z,3.40
2019-02-02T23:21:43.547Z,3.40
2019-02-02T23:24:12.064Z,3.50
2019-02-02T23:26:41.667Z,3.50
2019-02-02T23:29:10.164Z,3.50
2019-02-02T23:31:38.619Z,3.50
2019-02-02T23:34:07.053Z,3.60
2019-02-02T23:36:35.466Z,3.60
2019-02-02T23:39:07.122Z,3.60
2019-02-02T23:41:35.938Z,3.60
2019-02-02T23:44:04.547Z,3.60
2019-02-02T23:46:33.008Z,3.60
2019-02-02T23:49:01.540Z,3.70
2019-02-02T23:51:30.054Z,3.70
2019-02-02T23:53:58.568Z,3.70
2019-02-02T23:56:27.472Z,3.70
2019-02-02T23:58:55.938Z,3.70
